createdAt,value
2018-09-18T00:01:14.782Z,74.57
2018-09-18T00:03:41.795Z,74.58
2018-09-18T00:06:08.826Z,74.64
2018-09-18T00:08:35.831Z,74.03
2018-09-18T00:11:02.888Z,74.09
2018-09-18T00:13:30.311Z,74.09
2018-09-18T00:15:57.368Z,73.73
2018-09-18T00:18:24.419Z,74.35
2018-09-18T00:20:51.420Z,74.33
2018-09-18T00:23:18.592Z,74.10
2018-09-18T00:25:45.643Z,74.79
2018-09-18T00:28:12.721Z,74.80
2018-09-18T00:30:39.708Z,73.90
2018-09-18T00:33:07.107Z,74.08
2018-09-18T00:35:34.133Z,74.50
2018-09-18T00:38:01.106Z,74.80
2018-09-18T00:40:28.557Z,74.85
2018-09-18T00:42:55.536Z,74.32
2018-09-18T00:45:22.685Z,74.73
2018-09-18T00:47:49.695Z,75.74
2018-09-18T00:50:16.760Z,76.59
2018-09-18T00:52:43.751Z,75.51
2018-09-18T00:55:10.827Z,75.68
2018-09-18T00:57:38.879Z,75.34
2018-09-18T01:00:06.363Z,76.89
2018-09-18T01:02:33.351Z,75.39
2018-09-18T01:05:00.422Z,76.36
2018-09-18T01:07:27.447Z,77.81
2018-09-18T01:09:54.499Z,76.19
2018-09-18T01:12:21.650Z,76.64
2018-09-18T01:14:58.791Z,77.68
2018-09-18T01:17:25.775Z,76.54
2018-09-18T01:19:52.752Z,76.82
2018-09-18T01:22:19.736Z,77.13
2018-09-18T01:24:46.883Z,76.51
2018-09-18T01:27:13.852Z,77.00
2018-09-18T01:29:41.277Z,77.42
2018-09-18T01:32:08.284Z,77.21
2018-09-18T01:34:35.263Z,77.22
2018-09-18T01:37:02.648Z,77.77
2018-09-18T01:39:29.717Z,77.75
2018-09-18T01:41:56.699Z,77.51
2018-09-18T01:44:23.699Z,78.07
2018-09-18T01:46:50.671Z,77.83
2018-09-18T01:49:17.743Z,77.47
2018-09-18T01:51:44.759Z,76.86
2018-09-18T01:54:11.724Z,77.41
2018-09-18T01:56:38.831Z,77.27
2018-09-18T01:59:05.864Z,77.67
2018-09-18T02:01:32.923Z,77.49
2018-09-18T02:04:00.136Z,77.34
2018-09-18T02:06:27.492Z,77.52
2018-09-18T02:08:54.460Z,76.49
2018-09-18T02:11:21.455Z,77.02
2018-09-18T02:13:48.548Z,76.90
2018-09-18T02:16:15.528Z,77.00
2018-09-18T02:18:42.653Z,76.56
2018-09-18T02:21:09.981Z,77.12
2018-09-18T02:23:36.967Z,76.82
2018-09-18T02:26:04.031Z,76.87
2018-09-18T02:28:31.531Z,76.78
2018-09-18T02:30:58.508Z,76.87
2018-09-18T02:33:25.484Z,77.18
2018-09-18T02:35:52.479Z,76.83
2018-09-18T02:38:19.448Z,76.96
2018-09-18T02:40:46.515Z,76.60
2018-09-18T02:43:13.534Z,76.80
2018-09-18T02:45:41.156Z,77.09
2018-09-18T02:48:08.176Z,77.03
2018-09-18T02:50:35.461Z,77.23
2018-09-18T02:53:02.752Z,77.29
2018-09-18T02:55:29.755Z,76.46
2018-09-18T02:57:56.743Z,76.52
2018-09-18T03:00:23.731Z,77.22
2018-09-18T03:02:50.717Z,77.32
2018-09-18T03:05:17.715Z,76.83
2018-09-18T03:07:45.028Z,77.20
2018-09-18T03:10:12.116Z,77.20
2018-09-18T03:12:39.110Z,77.58
2018-09-18T03:15:06.128Z,77.00
2018-09-18T03:17:33.180Z,77.44
2018-09-18T03:20:00.166Z,77.23
2018-09-18T03:22:27.239Z,77.43
2018-09-18T03:24:54.203Z,77.39
2018-09-18T03:27:21.493Z,77.32
2018-09-18T03:29:48.494Z,77.43
2018-09-18T03:32:15.460Z,77.17
2018-09-18T03:34:42.705Z,77.21
2018-09-18T03:37:09.709Z,77.15
2018-09-18T03:39:36.687Z,77.14
2018-09-18T03:42:03.708Z,76.81
2018-09-18T03:44:30.766Z,77.25
2018-09-18T03:46:57.757Z,76.43
2018-09-18T03:49:24.765Z,76.99
2018-09-18T03:51:51.760Z,77.43
2018-09-18T03:54:18.902Z,77.23
2018-09-18T03:56:48.223Z,76.62
2018-09-18T03:59:15.223Z,76.82
2018-09-18T04:01:42.204Z,77.21
2018-09-18T04:04:09.428Z,77.76
2018-09-18T04:06:36.434Z,77.40
2018-09-18T04:09:06.395Z,78.02
2018-09-18T04:11:33.379Z,78.21
2018-09-18T04:14:00.508Z,78.34
2018-09-18T04:16:27.577Z,78.25
2018-09-18T04:18:54.573Z,78.50
2018-09-18T04:21:26.657Z,78.35
2018-09-18T04:23:53.624Z,78.42
2018-09-18T04:26:20.603Z,78.83
2018-09-18T04:28:47.809Z,78.58
2018-09-18T04:31:14.798Z,78.69
2018-09-18T04:33:41.774Z,78.31
2018-09-18T04:36:08.852Z,77.76
2018-09-18T04:38:35.845Z,78.79
2018-09-18T04:41:02.996Z,78.78
2018-09-18T04:43:31.068Z,79.02
2018-09-18T04:45:58.220Z,79.13
2018-09-18T04:48:25.184Z,78.70
2018-09-18T04:50:52.463Z,79.11
2018-09-18T04:53:19.432Z,79.05
2018-09-18T04:55:46.393Z,79.06
2018-09-18T04:58:13.727Z,79.19
2018-09-18T05:00:47.743Z,78.47
2018-09-18T05:03:14.731Z,78.76
2018-09-18T05:05:41.799Z,78.90
2018-09-18T05:08:08.777Z,79.53
2018-09-18T05:10:35.781Z,78.79
2018-09-18T05:13:02.939Z,77.92
2018-09-18T05:15:30.151Z,78.77
2018-09-18T05:17:57.147Z,78.74
2018-09-18T05:20:24.240Z,78.74
2018-09-18T05:22:51.303Z,78.71
2018-09-18T05:25:18.315Z,78.99
2018-09-18T05:27:45.301Z,78.99
2018-09-18T05:30:12.305Z,78.92
2018-09-18T05:32:39.516Z,79.12
2018-09-18T05:35:06.556Z,78.90
2018-09-18T05:37:33.529Z,79.24
2018-09-18T05:40:00.499Z,78.87
2018-09-18T05:42:27.475Z,79.06
2018-09-18T05:44:54.519Z,79.43
2018-09-18T05:47:21.534Z,78.56
2018-09-18T05:49:48.563Z,78.71
2018-09-18T05:52:15.891Z,78.43
2018-09-18T05:54:42.963Z,79.16
2018-09-18T05:57:10.288Z,78.26
2018-09-18T05:59:37.750Z,77.76
2018-09-18T06:02:05.031Z,77.57
2018-09-18T06:04:31.996Z,77.42
2018-09-18T06:06:59.738Z,76.80
2018-09-18T06:09:26.709Z,77.11
2018-09-18T06:11:53.758Z,77.44
2018-09-18T06:14:20.777Z,77.06
2018-09-18T06:16:47.837Z,76.59
2018-09-18T06:19:14.855Z,76.90
2018-09-18T06:21:43.203Z,76.56
2018-09-18T06:24:10.318Z,75.86
2018-09-18T06:26:37.313Z,75.51
2018-09-18T06:29:04.331Z,75.73
2018-09-18T06:31:31.348Z,75.04
2018-09-18T06:33:58.328Z,75.26
2018-09-18T06:36:25.371Z,75.12
2018-09-18T06:38:52.467Z,74.81
2018-09-18T06:41:19.755Z,75.03
2018-09-18T06:43:46.747Z,74.71
2018-09-18T06:46:13.719Z,74.60
2018-09-18T06:48:40.765Z,74.53
2018-09-18T06:51:08.168Z,73.62
2018-09-18T06:53:35.154Z,73.61
2018-09-18T06:56:02.137Z,73.48
2018-09-18T06:58:29.216Z,74.08
2018-09-18T07:00:56.407Z,73.69
2018-09-18T07:03:23.470Z,73.40
2018-09-18T07:05:50.463Z,72.57
2018-09-18T07:08:18.157Z,72.00
2018-09-18T07:10:45.157Z,72.66
2018-09-18T07:13:12.156Z,71.85
2018-09-18T07:15:39.905Z,70.54
2018-09-18T07:18:06.975Z,70.77
2018-09-18T07:20:33.983Z,69.96
2018-09-18T07:23:01.091Z,69.94
2018-09-18T07:25:28.073Z,68.71
2018-09-18T07:27:55.099Z,69.22
2018-09-18T07:30:22.408Z,68.27
2018-09-18T07:32:49.476Z,66.42
2018-09-18T07:35:16.819Z,66.59
2018-09-18T07:37:43.799Z,65.88
2018-09-18T07:40:10.879Z,65.85
2018-09-18T07:42:38.236Z,65.45
2018-09-18T07:45:05.360Z,64.94
2018-09-18T07:47:32.351Z,64.32
2018-09-18T07:49:59.432Z,63.97
2018-09-18T07:52:26.419Z,63.57
2018-09-18T07:54:53.406Z,62.23
2018-09-18T07:57:20.435Z,62.10
2018-09-18T07:59:47.515Z,62.23
2018-09-18T08:02:14.527Z,62.16
2018-09-18T08:04:41.706Z,62.34
2018-09-18T08:07:10.294Z,61.14
2018-09-18T08:09:37.385Z,61.48
2018-09-18T08:12:04.478Z,60.43
2018-09-18T08:14:31.452Z,58.81
2018-09-18T08:16:58.452Z,58.54
2018-09-18T08:19:25.471Z,58.82
2018-09-18T08:21:52.438Z,58.34
2018-09-18T08:24:19.799Z,57.02
2018-09-18T08:26:46.896Z,57.80
2018-09-18T08:29:13.969Z,57.38
2018-09-18T08:31:41.096Z,56.09
2018-09-18T08:34:08.088Z,56.15
2018-09-18T08:36:35.464Z,55.32
2018-09-18T08:39:04.333Z,55.22
2018-09-18T08:41:31.370Z,54.55
2018-09-18T08:43:58.360Z,54.17
2018-09-18T08:46:25.444Z,53.55
2018-09-18T08:48:54.484Z,54.12
2018-09-18T08:51:21.795Z,53.77
2018-09-18T08:53:48.852Z,53.57
2018-09-18T08:56:15.945Z,53.42
2018-09-18T08:58:43.021Z,52.63
2018-09-18T09:01:10.404Z,53.04
2018-09-18T09:03:37.348Z,53.40
2018-09-18T09:06:04.495Z,53.00
2018-09-18T09:08:32.059Z,52.10
2018-09-18T09:10:59.474Z,52.44
2018-09-18T09:13:26.460Z,51.86
2018-09-18T09:15:54.063Z,50.36
2018-09-18T09:18:21.770Z,49.90
2018-09-18T09:20:48.969Z,50.08
2018-09-18T09:23:15.869Z,50.35
2018-09-18T09:25:44.324Z,50.16
2018-09-18T09:28:11.421Z,49.71
2018-09-18T09:30:38.387Z,49.32
2018-09-18T09:33:05.712Z,49.57
2018-09-18T09:35:32.903Z,49.43
2018-09-18T09:37:59.875Z,48.80
2018-09-18T09:40:27.039Z,48.60
2018-09-18T09:42:54.055Z,49.01
2018-09-18T09:45:21.094Z,48.02
2018-09-18T09:47:48.535Z,48.44
2018-09-18T09:50:17.220Z,48.17
2018-09-18T09:52:44.444Z,47.22
2018-09-18T09:55:11.962Z,48.18
2018-09-18T09:57:38.951Z,47.36
2018-09-18T10:00:06.691Z,47.59
2018-09-18T10:02:39.600Z,47.15
2018-09-18T10:05:06.611Z,45.81
2018-09-18T10:07:33.801Z,46.32
2018-09-18T10:10:00.848Z,45.76
2018-09-18T10:12:27.951Z,46.07
2018-09-18T10:14:54.945Z,45.67
2018-09-18T10:17:21.987Z,44.23
2018-09-18T10:19:49.445Z,45.04
2018-09-18T10:22:16.588Z,44.57
2018-09-18T10:24:43.591Z,44.53
2018-09-18T10:27:11.207Z,43.85
2018-09-18T10:29:38.184Z,43.48
2018-09-18T10:32:05.282Z,43.69
2018-09-18T10:34:32.475Z,43.60
2018-09-18T10:36:59.475Z,42.87
2018-09-18T10:39:33.392Z,42.97
2018-09-18T10:42:00.440Z,43.18
2018-09-18T10:44:27.375Z,42.33
2018-09-18T10:46:54.360Z,42.13
2018-09-18T10:49:21.627Z,41.88
2018-09-18T10:51:48.715Z,42.37
2018-09-18T10:54:15.823Z,42.04
2018-09-18T10:56:43.324Z,41.08
2018-09-18T10:59:10.483Z,41.94
2018-09-18T11:01:37.474Z,41.91
2018-09-18T11:04:04.487Z,40.92
2018-09-18T11:06:31.484Z,40.87
2018-09-18T11:08:58.483Z,40.17
2018-09-18T11:11:25.551Z,40.10
2018-09-18T11:13:52.500Z,40.91
2018-09-18T11:16:19.777Z,40.65
2018-09-18T11:18:47.117Z,40.25
2018-09-18T11:21:14.205Z,39.40
2018-09-18T11:23:41.203Z,40.76
2018-09-18T11:26:08.275Z,40.95
2018-09-18T11:28:35.253Z,39.67
2018-09-18T11:31:02.376Z,39.42
2018-09-18T11:33:29.641Z,38.75
2018-09-18T11:35:56.793Z,38.91
2018-09-18T11:38:23.764Z,39.57
2018-09-18T11:40:50.819Z,38.17
2018-09-18T11:43:17.896Z,38.39
2018-09-18T11:45:45.436Z,37.94
2018-09-18T11:48:12.481Z,37.12
2018-09-18T11:50:39.444Z,37.08
2018-09-18T11:53:06.913Z,37.37
2018-09-18T11:55:33.989Z,37.45
2018-09-18T11:58:01.212Z,37.42
2018-09-18T12:00:28.265Z,37.12
2018-09-18T12:02:55.324Z,36.01
2018-09-18T12:05:22.243Z,36.31
2018-09-18T12:07:49.299Z,36.60
2018-09-18T12:10:16.379Z,34.73
2018-09-18T12:12:43.841Z,34.62
2018-09-18T12:15:10.821Z,35.19
2018-09-18T12:17:37.865Z,33.93
2018-09-18T12:20:04.917Z,33.59
2018-09-18T12:22:31.988Z,34.22
2018-09-18T12:24:59.026Z,32.98
2018-09-18T12:27:26.198Z,32.74
2018-09-18T12:29:53.273Z,32.41
2018-09-18T12:32:20.333Z,32.21
2018-09-18T12:34:47.423Z,31.41
2018-09-18T12:37:14.404Z,32.26
2018-09-18T12:39:41.775Z,31.48
2018-09-18T12:42:08.889Z,30.32
2018-09-18T12:44:35.751Z,31.05
2018-09-18T12:47:03.011Z,30.72
2018-09-18T12:49:30.184Z,29.49
2018-09-18T12:51:57.016Z,29.92
2018-09-18T12:54:24.308Z,29.19
2018-09-18T12:56:51.383Z,30.32
2018-09-18T12:59:18.373Z,29.03
2018-09-18T13:01:46.075Z,29.46
2018-09-18T13:04:13.060Z,29.19
2018-09-18T13:06:40.128Z,29.56
2018-09-18T13:09:08.499Z,29.31
2018-09-18T13:11:35.629Z,29.42
2018-09-18T13:14:02.694Z,28.46
2018-09-18T13:16:29.699Z,28.87
2018-09-18T13:18:56.667Z,28.06
2018-09-18T13:29:23.289Z,29.07
2018-09-18T13:31:50.359Z,27.99
2018-09-18T13:34:17.351Z,27.74
2018-09-18T13:36:44.911Z,28.30
2018-09-18T13:39:11.964Z,27.08
2018-09-18T13:41:39.035Z,27.91
2018-09-18T13:44:06.255Z,27.97
2018-09-18T13:46:33.413Z,29.26
2018-09-18T13:49:00.537Z,28.59
2018-09-18T13:51:27.624Z,27.94
2018-09-18T13:53:54.640Z,28.29
2018-09-18T13:56:22.199Z,28.73
2018-09-18T13:58:49.123Z,28.50
2018-09-18T14:01:16.231Z,28.83
2018-09-18T14:03:43.376Z,27.73
2018-09-18T14:06:10.552Z,28.16
2018-09-18T14:08:37.536Z,28.02
2018-09-18T14:11:04.661Z,28.45
2018-09-18T14:13:31.789Z,29.28
2018-09-18T14:15:58.781Z,29.06
2018-09-18T14:18:25.876Z,29.14
2018-09-18T14:20:52.863Z,29.01
2018-09-18T14:23:19.844Z,29.79
2018-09-18T14:25:46.883Z,29.91
2018-09-18T14:28:13.844Z,31.20
2018-09-18T14:30:40.815Z,30.95
2018-09-18T14:33:08.141Z,30.95
2018-09-18T14:35:35.105Z,31.49
2018-09-18T14:38:02.132Z,30.67
2018-09-18T14:40:29.449Z,30.77
2018-09-18T14:42:56.396Z,31.60
2018-09-18T14:45:23.473Z,31.26
2018-09-18T14:47:50.643Z,31.27
2018-09-18T14:50:17.690Z,31.77
2018-09-18T14:52:44.740Z,32.20
2018-09-18T14:55:11.715Z,32.03
2018-09-18T14:57:38.824Z,32.32
2018-09-18T15:00:05.902Z,31.71
2018-09-18T15:02:32.935Z,32.37
2018-09-18T15:05:00.014Z,31.91
2018-09-18T15:07:27.283Z,32.65
2018-09-18T15:09:54.318Z,31.97
2018-09-18T15:12:21.303Z,32.72
2018-09-18T15:14:48.374Z,32.80
2018-09-18T15:17:15.312Z,32.84
2018-09-18T15:19:42.375Z,32.36
2018-09-18T15:22:09.362Z,32.25
2018-09-18T15:24:37.027Z,32.71
2018-09-18T15:27:04.108Z,33.10
2018-09-18T15:29:31.271Z,33.61
2018-09-18T15:31:58.628Z,33.18
2018-09-18T15:34:25.563Z,33.35
2018-09-18T15:36:52.551Z,33.01
2018-09-18T15:39:20.441Z,33.53
2018-09-18T15:41:47.572Z,33.40
2018-09-18T15:44:14.673Z,33.37
2018-09-18T15:46:41.726Z,33.17
2018-09-18T15:49:08.704Z,32.98
2018-09-18T15:51:35.820Z,34.54
2018-09-18T15:54:02.773Z,33.70
2018-09-18T15:56:29.761Z,33.78
2018-09-18T15:58:56.776Z,34.08
2018-09-18T16:01:23.883Z,34.39
2018-09-18T16:03:50.910Z,33.98
2018-09-18T16:06:17.969Z,34.45
2018-09-18T16:08:44.960Z,34.43
2018-09-18T16:11:11.968Z,34.75
2018-09-18T16:13:38.988Z,34.96
2018-09-18T16:16:06.037Z,35.12
2018-09-18T16:18:33.506Z,34.52
2018-09-18T16:21:00.518Z,35.05
2018-09-18T16:23:27.608Z,34.37
2018-09-18T16:25:54.958Z,34.16
2018-09-18T16:28:22.030Z,33.45
2018-09-18T16:31:00.334Z,34.23
2018-09-18T16:33:27.373Z,34.35
2018-09-18T16:35:54.356Z,33.65
2018-09-18T16:38:21.370Z,34.69
2018-09-18T16:40:48.472Z,34.34
2018-09-18T16:43:15.583Z,35.43
2018-09-18T16:45:42.559Z,35.17
2018-09-18T16:48:09.573Z,34.78
2018-09-18T16:50:36.522Z,35.49
2018-09-18T16:53:03.503Z,35.97
2018-09-18T16:55:30.962Z,35.98
2018-09-18T16:57:57.960Z,36.30
2018-09-18T17:00:25.062Z,36.89
2018-09-18T17:02:52.037Z,38.55
2018-09-18T17:05:19.021Z,40.93
2018-09-18T17:07:45.992Z,46.05
2018-09-18T17:10:13.368Z,49.02
2018-09-18T17:12:40.521Z,50.61
2018-09-18T17:15:07.560Z,50.82
2018-09-18T17:17:34.658Z,52.36
2018-09-18T17:20:01.627Z,54.20
2018-09-18T17:22:28.640Z,54.34
2018-09-18T17:24:56.061Z,56.25
2018-09-18T17:27:23.028Z,56.88
2018-09-18T17:29:50.008Z,57.11
2018-09-18T17:32:17.202Z,58.32
2018-09-18T17:34:44.192Z,59.22
2018-09-18T17:37:11.168Z,58.91
2018-09-18T17:39:38.463Z,60.20
2018-09-18T17:42:05.484Z,60.91
2018-09-18T17:44:32.480Z,60.59
2018-09-18T17:46:59.791Z,61.76
2018-09-18T17:49:26.786Z,61.85
2018-09-18T17:51:54.091Z,62.81
2018-09-18T17:54:21.396Z,64.22
2018-09-18T17:56:48.420Z,64.45
2018-09-18T17:59:15.355Z,65.12
2018-09-18T18:01:42.366Z,64.75
2018-09-18T18:04:09.600Z,64.97
2018-09-18T18:06:36.593Z,64.66
2018-09-18T18:09:05.919Z,66.33
2018-09-18T18:11:32.954Z,66.55
2018-09-18T18:13:59.971Z,67.58
2018-09-18T18:16:27.262Z,68.48
2018-09-18T18:18:54.242Z,68.82
2018-09-18T18:21:21.226Z,70.10
2018-09-18T18:23:48.576Z,70.26
2018-09-18T18:26:15.593Z,70.51
2018-09-18T18:28:42.596Z,70.66
2018-09-18T18:31:10.002Z,71.23
2018-09-18T18:33:36.985Z,72.00
2018-09-18T18:36:03.981Z,72.12
2018-09-18T18:38:31.162Z,72.90
2018-09-18T18:40:58.325Z,73.10
2018-09-18T18:43:25.387Z,74.24
2018-09-18T18:45:52.404Z,74.77
2018-09-18T18:48:19.549Z,74.77
2018-09-18T18:50:46.536Z,75.78
2018-09-18T18:53:13.518Z,76.32
2018-09-18T18:55:40.800Z,76.23
2018-09-18T18:58:07.784Z,76.29
2018-09-18T19:00:34.863Z,77.02
2018-09-18T19:03:01.859Z,77.19
2018-09-18T19:05:28.844Z,77.88
2018-09-18T19:07:55.802Z,77.78
2018-09-18T19:10:23.302Z,77.24
2018-09-18T19:12:50.395Z,77.86
2018-09-18T19:15:17.348Z,78.54
2018-09-18T19:17:44.630Z,79.24
2018-09-18T19:20:11.610Z,78.46
2018-09-18T19:22:38.574Z,79.54
2018-09-18T19:25:06.095Z,79.56
2018-09-18T19:27:33.070Z,79.31
2018-09-18T19:30:00.050Z,79.50
2018-09-18T19:32:27.119Z,80.20
2018-09-18T19:34:54.328Z,80.22
2018-09-18T19:37:21.299Z,79.53
2018-09-18T19:39:48.292Z,79.18
2018-09-18T19:42:15.264Z,80.43
2018-09-18T19:44:42.583Z,81.09
2018-09-18T19:47:09.571Z,80.61
2018-09-18T19:49:39.009Z,81.49
2018-09-18T19:52:12.860Z,81.97
2018-09-18T19:54:40.625Z,82.02
2018-09-18T19:57:08.186Z,82.22
2018-09-18T19:59:35.161Z,82.25
2018-09-18T20:02:02.185Z,82.33
2018-09-18T20:04:29.191Z,83.25
2018-09-18T20:06:56.187Z,83.63
2018-09-18T20:09:23.315Z,84.18
2018-09-18T20:11:50.620Z,83.67
2018-09-18T20:14:17.592Z,84.26
2018-09-18T20:16:44.596Z,84.01
2018-09-18T20:19:11.978Z,84.79
2018-09-18T20:21:38.959Z,84.54
2018-09-18T20:24:05.962Z,84.23
2018-09-18T20:26:33.339Z,84.69
2018-09-18T20:29:00.457Z,84.60
2018-09-18T20:31:27.329Z,85.87
2018-09-18T20:33:54.303Z,85.66
2018-09-18T20:36:21.442Z,86.21
2018-09-18T20:38:48.436Z,86.81
2018-09-18T20:41:15.416Z,87.75
2018-09-18T20:43:42.419Z,86.61
2018-09-18T20:46:09.576Z,87.19
2018-09-18T20:48:36.712Z,87.21
2018-09-18T20:51:03.995Z,87.80
2018-09-18T20:53:31.003Z,87.10
2018-09-18T20:56:04.979Z,87.10
2018-09-18T20:58:32.516Z,88.16
2018-09-18T21:00:59.524Z,88.35
2018-09-18T21:03:26.519Z,88.24
2018-09-18T21:05:53.515Z,88.74
2018-09-18T21:08:20.703Z,88.87
2018-09-18T21:10:47.689Z,89.89
2018-09-18T21:13:15.000Z,89.44
2018-09-18T21:15:42.089Z,90.48
2018-09-18T21:18:09.144Z,89.85
2018-09-18T21:20:36.396Z,91.60
2018-09-18T21:23:03.368Z,91.42
2018-09-18T21:26:10.060Z,91.73
2018-09-18T21:28:37.320Z,91.37
2018-09-18T21:31:04.480Z,91.76
2018-09-18T21:33:31.555Z,93.74
2018-09-18T21:35:58.991Z,93.40
2018-09-18T21:38:26.021Z,93.47
2018-09-18T21:40:53.016Z,93.56
2018-09-18T21:43:20.024Z,93.67
2018-09-18T21:45:47.759Z,93.90
2018-09-18T21:48:14.758Z,94.82
2018-09-18T21:50:42.538Z,94.48
2018-09-18T21:53:11.470Z,94.08
2018-09-18T21:55:38.463Z,94.20
2018-09-18T21:58:06.182Z,94.21
2018-09-18T22:00:33.184Z,94.90
2018-09-18T22:03:00.882Z,94.82
2018-09-18T22:05:28.466Z,94.97
2018-09-18T22:07:55.497Z,95.11
2018-09-18T22:10:22.566Z,96.10
2018-09-18T22:12:49.900Z,96.19
2018-09-18T22:15:16.903Z,96.18
2018-09-18T22:17:43.885Z,96.40
2018-09-18T22:20:11.206Z,97.15
2018-09-18T22:22:38.224Z,97.94
2018-09-18T22:25:05.437Z,99.11
2018-09-18T22:27:32.621Z,99.69
2018-09-18T22:29:59.682Z,100.00
2018-09-18T22:32:26.707Z,100.00
2018-09-18T22:34:53.782Z,100.00
2018-09-18T22:37:20.800Z,100.00
2018-09-18T22:39:47.867Z,100.00
2018-09-18T22:42:14.926Z,100.00
2018-09-18T22:44:42.234Z,100.00
2018-09-18T22:47:09.320Z,100.00
2018-09-18T22:49:36.307Z,100.00
2018-09-18T22:52:03.328Z,100.00
2018-09-18T22:54:30.491Z,100.00
2018-09-18T22:56:57.562Z,100.00
2018-09-18T22:59:24.576Z,100.00
2018-09-18T23:01:51.681Z,100.00
2018-09-18T23:04:18.746Z,100.00
2018-09-18T23:06:46.063Z,100.00
2018-09-18T23:09:13.126Z,100.00
2018-09-18T23:11:47.173Z,100.00
2018-09-18T23:14:14.283Z,100.00
2018-09-18T23:16:41.621Z,100.00
2018-09-18T23:19:08.917Z,100.00
2018-09-18T23:21:35.980Z,100.00
2018-09-18T23:24:02.973Z,100.00
2018-09-18T23:26:29.948Z,100.00
2018-09-18T23:28:58.095Z,100.00
2018-09-18T23:31:25.114Z,100.00
2018-09-18T23:33:52.090Z,100.00
2018-09-18T23:36:19.332Z,100.00
2018-09-18T23:38:46.305Z,100.00
2018-09-18T23:41:13.423Z,100.00
2018-09-18T23:43:40.491Z,100.00
2018-09-18T23:46:07.462Z,100.00
2018-09-18T23:48:34.452Z,100.00
2018-09-18T23:51:01.452Z,100.00
2018-09-18T23:53:28.522Z,99.24
2018-09-18T23:55:55.911Z,99.81
2018-09-18T23:58:22.879Z,98.83
